Terminal Aerodrome Forecast
Issued by NWS Brownsville, TX

Home | Current Version | Previous Version | Text Only | Print | Product List | Glossary On
Versions: 1 2 3 4 5 6 7 8 9 10 11 12
000
FTUS44 KBRO 271123
TAFBRO
TAF
KBRO 271123Z 2712/2812 25004KT P6SM SCT250
     FM271800 19008KT P6SM SCT250
     FM280200 16005KT P6SM SCT250
      TEMPO 2809/2812 2SM BR=

USA.gov is the U.S. government's official web portal to all federal, state and local government web resources and services.